Contact Us:
Email: info@sawbill.com
Phone: (218)663-7150
Fax: (218)663-7980
Mail: 4620 Sawbill Trail
Box 2129
Tofte, MN 55615


Powered by
Movable Type 3.15
 
Sawbill Weather History Archives: March 2011
Current Sawbill Weather History | « February 2011 | April 2011 »


Date

High
Temperature

Low
Temperature

Barometric
Pressure

Relative
Humidity 7AM

9 AM
Temperature

Moisture

Snow

3/31/11 39 16 29.44 52% 29 Trace Trace
3/30/11 40 17 29.68 55% 17 0
3/29/11 37 8 29.94 46% 13 0
3/28/11 32 1 30.09 51% 9 0
3/27/11 27 -3 30.06 47% 1 0
3/26/11 25 -2 30.09 49% -2 0
3/25/11 24 -3 30.12 51% 1 0
3/24/11 24 -1 30.03 47% 0 0
3/23/11 25 1 30.03 41% 1 0
3/22/11 28 10 29.80 63% 10 Trace Trace
3/21/11 38 25 30.03 71% 25 Trace Trace
3/20/11 35 26 29.77 98% 26 .17" 1"
3/19/11 40 23 29.87 92% 26 .03" .5"
3/18/11 27 21 30.18 86% 23 Trace Trace
3/17/11 40 26 29.91 83% 26 .37" Trace
3/16/11 46 32 29.50 95% 37 0
3/15/11 38 28 29.74 84% 32 Trace Trace
3/14/11 44 23 29.88 78% 32 0
3/13/11 36 19 29.97 77% 21 Trace Trace
3/12/11 32 21 30.15 73% 23 .06" 1"
3/11/11 33 10 29.847 82% 10 Trace Trace
3/10/11 34 7 29.80 60% 10 0
3/9/11 31 17 29.97 73% 23 0
3/8/11 30 13 29.97 82% 22 0
3/7/11 24 6 30.09 71% 12 .09" 1.5"
3/6/11 21 7 29.97 76% 13 .18" 2.5"
3/5/11 19 -1 30.12 48% 7 Trace Trace
3/4/11 24 10 30.15 58% 11 0
3/3/11 20 13 29.88 82% 19 Trace Trace
3/2/11 13 -10 30.03 51% 13 .1" 1.5"
3/1/11 25 -11 30.21 51% -10 0
 


Home I Trip Planning I Rentals and Outfitting I Reservations I Campgrounds I Sawbill Store I Sawbill News I Contact

© 1997 - 2017, Sawbill Canoe Outfitters, Inc. I Privacy Policy